Time;durP1;ratioP1;P1;durP2;ratioP2;P2;SDS_P1;SDS_P2;PMS_P1;PMS_P2;Temp;Humidity;BMP_temperature;BMP_pressure;BME280_temperature;BME280_humidity;BME280_pressure;Samples;Min_cycle;Max_cycle;Signal;HPM_P1;HPM_P2
2023/06/22 00:02:18;;;;;;;3.33;2.50;;;23.40;99.90;;;23.44;54.34;101356.53;4971028;28;97443;-47
2023/06/22 00:04:44;;;;;;;3.23;2.13;;;23.40;99.90;;;23.43;53.62;101353.94;4970098;28;97069;-44
2023/06/22 00:07:10;;;;;;;3.33;2.20;;;23.40;99.90;;;23.42;53.26;101353.06;4962630;28;97071;-46
2023/06/22 00:09:36;;;;;;;3.05;1.88;;;23.30;99.90;;;23.41;54.13;101355.88;4955925;27;104106;-48
2023/06/22 00:12:03;;;;;;;3.28;1.70;;;23.30;99.90;;;23.40;53.94;101349.66;4958732;28;111131;-45
2023/06/22 00:14:29;;;;;;;2.70;2.25;;;23.40;99.90;;;23.41;54.07;101355.88;4958911;28;97228;-47
2023/06/22 00:16:56;;;;;;;2.30;2.00;;;23.30;99.90;;;23.40;53.96;101346.94;4982912;27;117011;-49
2023/06/22 00:19:23;;;;;;;3.25;2.17;;;23.30;99.90;;;23.39;53.54;101347.94;4974073;28;97030;-48
2023/06/22 00:21:53;;;;;;;4.68;2.80;;;23.30;99.90;;;23.37;53.49;101347.19;4966420;28;97474;-43
2023/06/22 00:24:20;;;;;;;1.65;1.15;;;23.30;99.90;;;23.39;53.30;101347.94;4968804;28;102072;-43
2023/06/22 00:26:48;;;;;;;2.72;1.95;;;23.30;99.90;;;23.37;54.02;101351.72;4964761;27;97200;-47
2023/06/22 00:29:14;;;;;;;2.75;2.17;;;23.30;99.90;;;23.36;55.10;101358.94;4956327;28;97260;-44
2023/06/22 00:31:39;;;;;;;2.92;2.10;;;23.30;99.90;;;23.36;54.41;101356.25;4966430;28;97245;-43
2023/06/22 00:34:06;;;;;;;4.07;2.37;;;23.30;99.90;;;23.36;53.97;101352.72;4970889;27;113200;-45
2023/06/22 00:36:32;;;;;;;3.35;2.05;;;23.30;99.90;;;23.35;53.55;101357.22;4981636;28;97623;-49
2023/06/22 00:38:58;;;;;;;2.30;1.90;;;23.20;99.90;;;23.36;53.97;101353.56;4977122;28;97172;-46
2023/06/22 00:41:24;;;;;;;3.43;2.23;;;23.30;99.90;;;23.35;53.76;101356.38;4985235;28;97403;-54
2023/06/22 00:43:49;;;;;;;2.67;2.15;;;23.30;99.90;;;23.34;54.07;101355.53;4976003;28;97183;-43
2023/06/22 00:46:15;;;;;;;2.40;2.10;;;23.30;99.90;;;23.35;54.83;101351.00;4975819;28;102842;-43
2023/06/22 00:48:43;;;;;;;2.60;2.00;;;23.30;99.90;;;23.34;53.56;101350.13;4980674;28;97273;-44
2023/06/22 00:51:11;;;;;;;2.27;1.90;;;23.30;99.90;;;23.34;54.06;101350.13;4978923;27;97209;-46
2023/06/22 00:53:37;;;;;;;2.83;2.28;;;23.30;99.90;;;23.36;55.13;101358.94;4975011;27;97271;-46
2023/06/22 00:56:05;;;;;;;3.33;1.87;;;23.20;99.90;;;23.33;54.36;101350.25;4957750;28;97460;-44
2023/06/22 00:58:31;;;;;;;4.73;2.67;;;23.20;99.90;;;23.33;54.47;101347.56;4960035;28;97139;-43
2023/06/22 01:00:57;;;;;;;3.00;2.03;;;23.30;99.90;;;23.32;55.08;101352.09;4960424;28;97484;-46
2023/06/22 01:03:23;;;;;;;3.33;2.10;;;23.20;99.90;;;23.33;55.42;101351.13;4967723;28;97131;-46
2023/06/22 01:05:49;;;;;;;2.78;2.13;;;23.20;99.90;;;23.31;54.12;101355.78;4958117;28;116850;-43
2023/06/22 01:08:46;;;;;;;3.40;2.60;;;23.20;99.90;;;23.32;53.90;101354.78;4985079;27;97139;-47
2023/06/22 01:11:23;;;;;;;1.93;1.50;;;23.20;99.90;;;23.29;53.76;101348.75;4968400;28;98464;-43
2023/06/22 01:14:15;;;;;;;3.47;2.00;;;23.20;99.90;;;23.32;55.73;101352.09;4960492;28;102547;-45
2023/06/22 01:16:44;;;;;;;2.77;1.80;;;23.20;99.90;;;23.27;54.48;101348.88;4965458;28;102167;-46
2023/06/22 01:19:55;;;;;;;2.80;2.03;;;23.20;99.90;;;23.30;53.79;101343.28;4973154;27;97767;-47
2023/06/22 01:22:25;;;;;;;3.07;2.20;;;23.20;99.90;;;23.29;55.64;101346.06;4955295;28;97433;-45
2023/06/22 01:25:13;;;;;;;4.10;2.20;;;23.20;99.90;;;23.29;55.44;101341.59;4962691;28;102152;-46
2023/06/22 01:28:05;;;;;;;2.30;1.73;;;23.20;99.90;;;23.28;53.72;101334.44;4974353;28;102668;-45
2023/06/22 01:30:33;;;;;;;2.80;2.10;;;23.20;99.90;;;23.25;54.54;101329.31;4977577;27;97793;-46
2023/06/22 01:33:01;;;;;;;3.22;1.20;;;23.20;99.90;;;23.24;53.80;101327.59;4959430;28;97574;-45
2023/06/22 01:35:28;;;;;;;3.47;2.00;;;23.20;99.90;;;23.24;55.37;101327.59;4977380;28;97590;-46
2023/06/22 01:37:55;;;;;;;2.90;1.77;;;23.10;99.90;;;23.24;53.90;101327.59;4959340;28;102093;-44
2023/06/22 01:40:21;;;;;;;3.17;2.00;;;23.10;99.90;;;23.23;53.98;101323.19;4964542;28;96827;-49
2023/06/22 01:42:48;;;;;;;1.87;1.70;;;23.10;99.90;;;23.25;54.79;101315.84;4977814;28;96980;-47
2023/06/22 01:45:15;;;;;;;3.03;2.13;;;23.10;99.90;;;23.24;54.03;101315.97;4961050;28;97725;-46
2023/06/22 01:47:41;;;;;;;2.10;1.83;;;23.10;99.90;;;23.24;53.87;101308.75;4963841;28;98912;-45
2023/06/22 01:50:08;;;;;;;2.37;1.50;;;23.20;99.90;;;23.24;54.62;101316.84;4969838;27;97306;-46
2023/06/22 01:52:34;;;;;;;3.20;2.17;;;23.10;99.90;;;23.23;54.49;101307.06;4963696;28;97719;-45
2023/06/22 01:55:01;;;;;;;2.50;2.00;;;23.10;99.90;;;23.22;54.01;101308.03;4962897;28;98902;-46
2023/06/22 01:57:27;;;;;;;2.23;2.00;;;23.10;99.90;;;23.22;53.65;101302.66;4968893;27;99016;-46
2023/06/22 02:00:07;;;;;;;2.03;1.63;;;23.10;99.90;;;23.24;54.37;101305.22;4954071;28;103155;-47
2023/06/22 02:02:50;;;;;;;3.13;1.90;;;23.10;99.90;;;23.24;54.41;101303.38;4962745;28;97619;-47
2023/06/22 02:05:18;;;;;;;1.77;1.50;;;23.10;99.90;;;23.20;53.95;101299.22;4962138;28;96947;-45
2023/06/22 02:08:09;;;;;;;2.87;2.00;;;23.10;99.90;;;23.23;54.18;101298.97;4977897;28;97192;-48
2023/06/22 02:10:37;;;;;;;1.83;1.50;;;23.10;99.90;;;23.20;54.14;101298.38;4956116;28;101714;-46
2023/06/22 02:13:07;;;;;;;2.73;1.70;;;23.10;99.90;;;23.20;54.15;101296.53;4960350;28;97142;-47
2023/06/22 02:15:33;;;;;;;3.00;1.77;;;23.10;99.90;;;23.19;54.27;101308.28;4956888;28;97581;-47
2023/06/22 02:18:00;;;;;;;2.00;1.60;;;23.10;99.90;;;23.19;54.42;101293.97;4954555;28;102875;-46
2023/06/22 02:20:26;;;;;;;2.23;1.60;;;23.10;99.90;;;23.19;54.81;101297.50;4957525;28;97223;-47
2023/06/22 02:22:52;;;;;;;2.90;2.10;;;23.10;99.90;;;23.17;54.76;101304.84;4960084;28;97103;-49
2023/06/22 02:25:18;;;;;;;4.20;1.77;;;23.10;99.90;;;23.17;54.18;101309.38;4960210;28;108186;-48
2023/06/22 02:27:45;;;;;;;3.30;2.10;;;23.10;99.90;;;23.17;54.87;101307.53;4961908;28;98217;-44
2023/06/22 02:30:11;;;;;;;3.23;1.90;;;23.10;99.90;;;23.18;55.30;101308.41;4963265;28;98482;-47
2023/06/22 02:32:41;;;;;;;2.63;2.07;;;23.10;99.90;;;23.18;55.90;101306.56;4961979;28;97013;-45
2023/06/22 02:35:09;;;;;;;2.53;1.73;;;23.10;99.90;;;23.15;54.81;101301.44;4958945;28;97268;-48
2023/06/22 02:37:41;;;;;;;2.37;2.17;;;23.00;99.90;;;23.15;55.61;101291.53;4976685;28;98104;-46
2023/06/22 02:40:09;;;;;;;2.80;2.50;;;23.10;99.90;;;23.13;54.58;101297.97;4963283;28;97363;-48
2023/06/22 02:42:36;;;;;;;2.47;2.07;;;23.00;99.90;;;23.13;54.84;101297.97;4967264;27;100640;-49
2023/06/22 02:45:02;;;;;;;2.47;1.80;;;23.00;99.90;;;23.13;55.21;101282.69;4976057;28;98218;-47
2023/06/22 02:47:29;;;;;;;2.97;2.20;;;23.00;99.90;;;23.15;55.61;101285.28;4967425;28;97307;-47
2023/06/22 02:49:55;;;;;;;2.47;1.60;;;23.00;99.90;;;23.15;55.51;101285.28;4962269;27;97772;-45
2023/06/22 02:52:20;;;;;;;4.00;1.80;;;23.00;99.90;;;23.14;55.07;101278.16;4955696;28;105506;-46
2023/06/22 02:54:46;;;;;;;1.73;1.63;;;23.00;99.90;;;23.13;54.87;101273.75;4974277;28;98320;-44
2023/06/22 02:57:13;;;;;;;5.00;2.03;;;23.00;99.90;;;23.13;54.53;101265.69;4952739;28;97515;-49
2023/06/22 02:59:41;;;;;;;2.17;1.63;;;23.00;99.90;;;23.13;54.43;101271.06;4965157;28;97208;-48
2023/06/22 03:02:08;;;;;;;1.93;1.40;;;23.00;99.90;;;23.12;54.17;101264.84;4976040;28;97493;-47
2023/06/22 03:04:35;;;;;;;2.73;1.63;;;23.00;99.90;;;23.12;54.59;101263.97;4958052;28;97150;-49
2023/06/22 03:07:01;;;;;;;2.60;1.50;;;23.00;99.90;;;23.09;54.42;101256.16;4961417;28;97462;-47
2023/06/22 03:09:28;;;;;;;2.60;1.97;;;23.00;99.90;;;23.08;54.13;101259.81;4960856;28;97381;-49
2023/06/22 03:11:54;;;;;;;2.53;1.60;;;22.90;99.90;;;23.10;54.54;101249.78;4966097;28;97178;-46
2023/06/22 03:14:20;;;;;;;2.93;1.77;;;22.90;99.90;;;23.07;54.32;101255.41;4976982;28;100559;-48
2023/06/22 03:16:46;;;;;;;2.10;1.70;;;22.90;99.90;;;23.06;54.64;101253.72;4968315;28;109708;-47
2023/06/22 03:19:13;;;;;;;2.33;1.60;;;22.90;99.90;;;23.07;54.41;101253.59;4969304;27;97544;-48
2023/06/22 03:21:39;;;;;;;3.30;2.03;;;22.90;99.90;;;23.08;54.54;101257.13;4980236;28;97921;-44
2023/06/22 03:24:06;;;;;;;2.20;1.80;;;22.90;99.90;;;23.09;54.36;101250.78;4969190;28;96907;-51
2023/06/22 03:26:34;;;;;;;2.27;1.77;;;22.90;99.90;;;23.07;55.32;101250.03;4970988;28;98681;-47
2023/06/22 03:29:00;;;;;;;2.00;1.77;;;22.90;99.90;;;23.08;55.20;101257.13;4970576;27;97362;-46
2023/06/22 03:31:26;;;;;;;2.73;2.00;;;22.90;99.90;;;23.06;55.31;101248.31;4975676;28;97475;-45
2023/06/22 03:33:51;;;;;;;2.80;1.97;;;22.90;99.90;;;23.05;54.92;101252.00;4976172;28;103350;-48
2023/06/22 03:36:22;;;;;;;1.67;1.37;;;22.90;99.90;;;23.04;54.48;101250.28;4980263;28;97550;-49
2023/06/22 03:38:51;;;;;;;2.83;1.90;;;22.90;99.90;;;23.06;54.89;101242.94;4975665;28;97447;-45
2023/06/22 03:41:17;;;;;;;3.00;1.80;;;22.90;99.90;;;23.04;55.34;101244.91;4976637;28;97123;-48
2023/06/22 03:43:43;;;;;;;3.57;1.83;;;22.90;99.90;;;23.05;54.48;101241.25;4968885;28;97108;-46
2023/06/22 03:46:09;;;;;;;2.87;1.90;;;22.90;99.90;;;23.05;54.98;101241.25;4953356;28;97862;-47
2023/06/22 03:48:35;;;;;;;6.67;2.10;;;22.90;99.90;;;23.06;54.80;101237.56;4974779;28;97921;-45
2023/06/22 03:51:03;;;;;;;2.83;1.87;;;22.90;99.90;;;23.06;54.94;101246.50;4977574;28;97047;-45
2023/06/22 03:53:29;;;;;;;7.03;2.07;;;22.90;99.90;;;23.06;54.81;101245.63;4977570;28;97190;-49
2023/06/22 03:55:55;;;;;;;3.07;1.70;;;22.90;99.90;;;23.05;54.65;101239.41;4973607;28;96740;-47
2023/06/22 03:58:21;;;;;;;2.63;2.00;;;22.90;99.90;;;23.05;54.57;101235.84;4964786;28;99561;-45
2023/06/22 04:00:49;;;;;;;3.87;1.80;;;22.90;99.90;;;23.05;54.49;101238.56;4971966;28;97284;-46
2023/06/22 04:03:15;;;;;;;2.70;1.97;;;22.90;99.90;;;23.05;55.20;101242.09;4963091;28;97106;-45
2023/06/22 04:05:42;;;;;;;1.50;1.40;;;22.90;99.90;;;23.05;54.15;101238.56;4960859;28;98125;-46
2023/06/22 04:08:08;;;;;;;1.17;1.07;;;22.90;99.90;;;23.05;54.15;101233.16;4962045;28;98961;-44
2023/06/22 04:10:34;;;;;;;2.50;1.70;;;23.00;99.90;;;23.07;54.03;101233.91;4981134;28;101509;-45
2023/06/22 04:13:01;;;;;;;1.40;1.30;;;23.00;99.90;;;23.08;54.33;101230.22;4975063;28;113890;-44
2023/06/22 04:15:26;;;;;;;2.13;1.57;;;23.00;99.90;;;23.08;54.24;101230.22;4974375;28;98981;-44
2023/06/22 04:17:55;;;;;;;2.20;1.57;;;23.00;99.90;;;23.10;54.06;101233.66;4982433;28;97354;-46
2023/06/22 04:20:21;;;;;;;2.07;1.30;;;23.00;99.90;;;23.11;53.86;101235.34;4978743;28;97300;-46
2023/06/22 04:22:47;;;;;;;2.43;1.73;;;23.00;99.90;;;23.11;53.90;101235.34;4973642;28;98141;-50
2023/06/22 04:25:13;;;;;;;3.77;1.97;;;23.00;99.90;;;23.12;54.85;101237.94;4962854;28;100028;-48
2023/06/22 04:27:40;;;;;;;3.65;1.73;;;23.00;99.90;;;23.11;54.53;101228.16;4952245;28;105438;-53
2023/06/22 04:30:07;;;;;;;1.83;1.70;;;23.00;99.90;;;23.13;54.78;101233.41;4970006;28;96853;-45
2023/06/22 04:32:39;;;;;;;3.88;2.05;;;23.00;99.90;;;23.13;55.10;101234.25;4960019;28;98578;-48
2023/06/22 04:35:06;;;;;;;2.83;1.90;;;23.10;99.90;;;23.15;55.19;101236.84;4973463;28;97371;-46
2023/06/22 04:37:33;;;;;;;3.70;1.90;;;23.10;99.90;;;23.14;54.86;101240.50;4967649;28;97181;-46
2023/06/22 04:39:59;;;;;;;4.13;1.70;;;23.00;99.90;;;23.14;54.94;101235.09;4978959;27;97361;-48
2023/06/22 04:42:27;;;;;;;4.03;1.90;;;23.00;99.90;;;23.14;54.96;101244.03;4969015;28;97454;-45
2023/06/22 04:44:53;;;;;;;3.53;1.87;;;23.00;99.90;;;23.15;54.92;101247.63;4975795;27;102494;-45
2023/06/22 04:47:19;;;;;;;3.30;2.17;;;23.00;99.90;;;23.15;55.30;101234.16;4966829;28;97174;-46
2023/06/22 04:49:45;;;;;;;3.97;2.13;;;23.00;99.90;;;23.14;54.12;101240.50;4977364;28;96689;-49
2023/06/22 04:54:55;;;;;;;2.60;1.63;;;23.00;99.90;;;23.15;55.37;101242.22;5122883;22;96806;-53
2023/06/22 04:57:24;;;;;;;4.27;2.53;;;23.00;99.90;;;23.14;55.44;101241.34;4999783;27;96942;-56
2023/06/22 04:59:50;;;;;;;2.67;1.83;;;23.00;99.90;;;23.14;55.62;101240.50;4993343;27;97417;-58
2023/06/22 05:02:16;;;;;;;2.23;1.67;;;23.00;99.90;;;23.13;55.82;101244.16;4995900;27;116099;-57
2023/06/22 05:04:42;;;;;;;4.70;1.90;;;23.00;99.90;;;23.13;55.43;101246.84;4999953;27;97491;-56
2023/06/22 05:07:07;;;;;;;2.23;1.57;;;23.00;99.90;;;23.14;56.38;101251.25;4994750;27;97512;-56
2023/06/22 05:09:36;;;;;;;2.17;1.87;;;23.00;99.90;;;23.14;55.84;101245.88;4998877;28;97259;-59
2023/06/22 05:12:04;;;;;;;2.77;2.30;;;23.00;99.90;;;23.15;55.43;101236.84;4993848;27;98133;-56
2023/06/22 05:14:30;;;;;;;3.00;2.00;;;23.00;99.90;;;23.14;55.51;101237.81;4993858;27;98959;-58
2023/06/22 05:16:58;;;;;;;3.50;2.10;;;23.00;99.90;;;23.15;56.27;101235.03;5002748;27;97468;-56
2023/06/22 05:19:25;;;;;;;4.53;2.43;;;23.10;99.90;;;23.16;56.33;101233.19;4977435;27;97707;-57
2023/06/22 05:21:51;;;;;;;5.93;2.33;;;23.10;99.90;;;23.17;55.97;101234.91;4997202;27;97201;-57
2023/06/22 05:24:16;;;;;;;3.43;1.90;;;23.10;99.90;;;23.19;56.50;101238.31;4979422;27;117267;-57
2023/06/22 05:26:42;;;;;;;5.60;2.40;;;23.10;99.90;;;23.19;56.84;101238.31;5005591;27;99498;-58
2023/06/22 05:29:08;;;;;;;2.67;2.07;;;23.10;99.90;;;23.19;56.26;101232.94;5002609;27;97401;-59
2023/06/22 05:31:34;;;;;;;2.83;1.97;;;23.10;99.90;;;23.20;56.84;101234.66;4999399;27;97337;-57
2023/06/22 05:34:00;;;;;;;2.67;2.15;;;23.10;99.90;;;23.20;56.83;101233.78;4991856;27;97508;-59
2023/06/22 05:36:26;;;;;;;3.78;1.92;;;23.10;99.90;;;23.19;55.21;101243.69;5001834;27;97583;-58
2023/06/22 05:38:53;;;;;;;4.20;2.47;;;23.10;99.90;;;23.21;56.73;101246.25;4998510;27;97846;-54
2023/06/22 05:41:19;;;;;;;2.67;1.83;;;23.10;99.90;;;23.19;55.08;101246.38;4999753;27;97447;-56
2023/06/22 05:43:44;;;;;;;2.50;1.92;;;23.10;99.90;;;23.19;55.63;101238.31;4980734;27;102809;-56
2023/06/22 05:46:10;;;;;;;3.73;2.20;;;23.10;99.90;;;23.20;56.06;101234.66;4990355;27;96800;-57
2023/06/22 05:48:36;;;;;;;2.10;1.50;;;23.10;99.90;;;23.18;54.23;101235.75;4973089;27;97340;-57
2023/06/22 05:51:02;;;;;;;4.80;2.10;;;23.10;99.90;;;23.19;54.49;101241.00;4985698;27;110894;-57
2023/06/22 05:53:28;;;;;;;3.22;2.22;;;23.10;99.90;;;23.18;54.39;101244.69;4983664;27;97152;-57
2023/06/22 05:55:54;;;;;;;3.38;2.33;;;23.10;99.90;;;23.20;54.63;101233.78;4991303;27;101584;-56
2023/06/22 05:58:20;;;;;;;4.63;2.83;;;23.10;99.90;;;23.20;54.22;101231.09;5006874;27;97449;-57
2023/06/22 06:00:46;;;;;;;3.03;2.40;;;23.10;99.90;;;23.20;54.26;101234.66;4999674;27;112301;-56
2023/06/22 06:03:16;;;;;;;2.23;1.80;;;23.10;99.90;;;23.21;54.00;101241.72;4996649;27;97457;-56
2023/06/22 06:05:43;;;;;;;3.50;2.22;;;23.20;99.90;;;23.24;57.92;101241.47;4998662;27;97114;-54
2023/06/22 06:08:10;;;;;;;2.97;2.35;;;23.20;99.90;;;23.25;57.77;101251.28;4974868;27;96832;-55
2023/06/22 06:10:36;;;;;;;4.85;2.22;;;23.20;99.90;;;23.27;57.70;101260.06;4979174;27;99120;-55
2023/06/22 06:13:04;;;;;;;3.73;2.50;;;23.20;99.90;;;23.27;57.04;101256.53;5000722;27;97439;-55
2023/06/22 06:15:30;;;;;;;5.40;2.60;;;23.20;99.90;;;23.28;57.76;101248.31;4999276;27;99696;-60
2023/06/22 06:17:56;;;;;;;5.57;2.42;;;23.20;99.90;;;23.28;56.93;101248.31;4985806;27;97271;-56
2023/06/22 06:20:24;;;;;;;7.13;2.50;;;23.20;99.90;;;23.29;56.74;101252.75;4991153;27;100973;-56
2023/06/22 06:22:50;;;;;;;3.07;2.77;;;23.20;99.90;;;23.32;58.62;101260.59;4983873;27;98474;-57
2023/06/22 06:25:16;;;;;;;5.18;2.78;;;23.20;99.90;;;23.33;59.01;101256.91;4985323;28;97484;-57
2023/06/22 06:27:43;;;;;;;4.53;2.93;;;23.30;99.90;;;23.36;58.55;101255.81;4983992;27;97431;-57
2023/06/22 06:30:11;;;;;;;4.97;3.20;;;23.30;99.90;;;23.36;55.41;101248.59;4993123;27;97498;-54
2023/06/22 06:32:37;;;;;;;4.82;3.35;;;23.30;99.90;;;23.39;58.35;101261.78;4998872;27;98755;-57
2023/06/22 06:35:06;;;;;;;4.72;3.50;;;23.30;99.90;;;23.42;59.64;101261.53;4995187;27;97283;-56
2023/06/22 06:37:33;;;;;;;7.30;3.22;;;23.40;99.90;;;23.44;60.45;101259.59;4985195;27;97409;-56
2023/06/22 06:39:58;;;;;;;4.80;3.47;;;23.40;99.90;;;23.47;60.58;101260.34;4982731;27;97583;-55
2023/06/22 06:42:24;;;;;;;4.68;3.20;;;23.40;99.90;;;23.48;62.11;101264.75;4984856;27;97282;-56
2023/06/22 06:44:50;;;;;;;7.50;4.03;;;23.40;99.90;;;23.50;62.51;101263.63;4999809;27;112882;-55
2023/06/22 06:47:16;;;;;;;5.72;4.10;;;23.40;99.90;;;23.52;62.87;101255.44;4994697;27;97338;-56
2023/06/22 06:49:42;;;;;;;6.47;4.40;;;23.50;99.90;;;23.52;57.82;101266.19;4987856;27;97447;-57
2023/06/22 06:52:08;;;;;;;11.70;3.85;;;23.50;99.90;;;23.52;60.74;101260.81;4989779;27;97504;-56
2023/06/22 06:54:34;;;;;;;4.53;3.78;;;23.50;99.90;;;23.51;56.67;101257.25;4992129;27;97147;-57
2023/06/22 06:57:00;;;;;;;4.55;3.75;;;23.50;99.90;;;23.53;60.88;101257.13;4985080;27;105047;-58
2023/06/22 06:59:25;;;;;;;5.22;3.40;;;23.50;99.90;;;23.55;62.65;101249.78;4999625;27;102420;-55
2023/06/22 07:01:51;;;;;;;5.07;3.30;;;23.50;99.90;;;23.53;57.04;101246.38;4995443;27;97056;-54
2023/06/22 07:04:17;;;;;;;7.55;4.22;;;23.50;99.90;;;23.55;58.08;101239.00;4989248;27;111892;-55
2023/06/22 07:06:43;;;;;;;7.03;4.38;;;23.50;99.90;;;23.56;56.17;101240.72;4994212;27;96938;-56
2023/06/22 07:09:09;;;;;;;6.90;4.30;;;23.50;99.90;;;23.65;65.17;101240.03;4971163;27;97478;-57
2023/06/22 07:11:36;;;;;;;4.05;2.67;;;23.60;99.90;;;23.59;55.77;101240.53;4988810;27;123083;-55
2023/06/22 07:14:02;;;;;;;7.35;4.20;;;23.60;99.90;;;23.71;64.55;101240.38;4990914;27;97247;-55
2023/06/22 07:16:28;;;;;;;7.57;4.57;;;23.70;99.90;;;23.72;60.41;101225.94;4994535;27;97288;-56
2023/06/22 07:18:54;;;;;;;2.97;2.05;;;23.70;99.90;;;23.61;56.34;101222.41;4972677;27;98201;-54
2023/06/22 07:21:20;;;;;;;4.38;3.25;;;23.60;99.90;;;23.56;61.10;101219.19;4990505;27;102227;-55
2023/06/22 07:23:46;;;;;;;4.95;3.65;;;23.50;99.90;;;23.60;57.88;101213.47;4982373;27;97252;-56
2023/06/22 07:26:12;;;;;;;2.55;1.48;;;23.60;99.90;;;23.34;55.96;101199.41;4986078;27;96944;-54
2023/06/22 07:28:40;;;;;;;2.72;1.60;;;23.40;99.90;;;23.27;55.15;101198.16;4975891;27;96870;-55
2023/06/22 07:31:06;;;;;;;2.55;1.67;;;23.40;99.90;;;23.29;54.96;101201.63;4976960;27;97655;-54
2023/06/22 07:33:32;;;;;;;5.30;3.80;;;23.30;99.90;;;23.43;57.19;101201.38;4994237;27;97396;-57
2023/06/22 07:35:58;;;;;;;6.03;3.90;;;23.40;99.90;;;23.52;61.72;101201.59;4983400;27;96973;-57
2023/06/22 07:38:24;;;;;;;5.63;4.10;;;23.50;99.90;;;23.57;60.50;101202.06;4981529;27;100541;-57
2023/06/22 07:40:50;;;;;;;3.13;2.47;;;23.60;99.90;;;23.44;60.07;101195.00;4967430;27;97323;-55
2023/06/22 07:43:16;;;;;;;2.10;1.85;;;23.50;99.90;;;23.25;55.40;101189.38;4967688;27;97462;-56
2023/06/22 07:45:52;;;;;;;3.47;2.08;;;23.40;99.90;;;23.21;55.21;101187.06;4989696;27;107231;-55
2023/06/22 07:48:22;;;;;;;1.95;1.58;;;23.30;99.90;;;23.08;55.52;101192.56;4976023;27;97967;-56
2023/06/22 07:50:48;;;;;;;2.72;1.90;;;23.20;99.90;;;23.11;55.19;101186.94;4979500;27;98154;-56
2023/06/22 07:53:15;;;;;;;3.38;1.90;;;23.20;99.90;;;23.13;55.38;101172.38;4984674;27;97231;-55
2023/06/22 07:55:40;;;;;;;2.10;1.90;;;23.20;99.90;;;23.05;55.38;101171.28;4974939;27;98313;-55
2023/06/22 07:58:07;;;;;;;2.58;1.65;;;23.20;99.90;;;22.90;55.40;101167.13;4989877;27;97231;-54
2023/06/22 08:00:34;;;;;;;3.45;1.67;;;23.00;99.90;;;22.98;55.80;101170.03;4988528;27;98281;-55
2023/06/22 08:02:59;;;;;;;2.22;1.60;;;23.00;99.90;;;22.95;55.65;101162.22;5008934;27;97123;-57
2023/06/22 08:05:26;;;;;;;3.70;1.93;;;23.00;99.90;;;23.01;55.42;101159.06;4981346;27;99045;-55
2023/06/22 08:07:53;;;;;;;3.27;2.30;;;23.10;99.90;;;23.06;55.41;101156.84;4978536;27;98634;-57
2023/06/22 08:10:19;;;;;;;1.88;1.45;;;23.10;99.90;;;23.00;55.58;101151.94;4982547;27;99917;-57
2023/06/22 08:12:45;;;;;;;2.33;2.13;;;23.10;99.90;;;22.88;55.46;101158.34;4976616;27;97120;-54
2023/06/22 08:15:11;;;;;;;2.05;1.80;;;23.00;99.90;;;22.83;55.71;101156.84;4979212;27;97312;-56
2023/06/22 08:17:38;;;;;;;3.08;2.13;;;23.00;99.90;;;22.90;55.97;101146.47;4983767;27;99221;-56
2023/06/22 08:20:14;;;;;;;2.58;1.83;;;23.00;99.90;;;22.81;55.95;101147.16;4974744;28;97349;-56
2023/06/22 08:22:41;;;;;;;2.93;2.27;;;22.90;99.90;;;22.73;55.81;101138.84;4979577;27;97793;-55
2023/06/22 08:25:08;;;;;;;2.75;2.15;;;22.80;99.90;;;22.77;56.12;101137.63;4985765;27;97061;-57
2023/06/22 08:27:33;;;;;;;3.47;2.15;;;22.80;99.90;;;22.86;56.36;101126.19;4989819;27;97446;-57
2023/06/22 08:30:00;;;;;;;2.53;1.90;;;22.90;99.90;;;22.84;55.98;101120.03;4976409;27;99685;-53
2023/06/22 08:32:29;;;;;;;2.73;1.93;;;23.00;99.90;;;22.93;55.77;101118.47;4982564;27;105205;-54
2023/06/22 08:34:56;;;;;;;2.55;1.83;;;23.00;99.90;;;22.96;55.93;101118.22;4988177;27;97437;-53
2023/06/22 08:37:30;;;;;;;5.00;2.35;;;23.00;99.90;;;23.01;55.98;101105.25;4979775;27;97482;-55
2023/06/22 08:39:58;;;;;;;3.33;2.10;;;23.10;99.90;;;22.93;55.66;101111.25;4988781;27;100166;-56
2023/06/22 08:42:25;;;;;;;2.95;2.10;;;23.00;99.90;;;22.87;55.48;101110.91;4989786;27;97271;-55
2023/06/22 08:44:51;;;;;;;5.35;3.60;;;23.00;99.90;;;22.97;56.40;101098.41;4991444;27;97304;-52
2023/06/22 08:47:17;;;;;;;3.73;2.13;;;23.00;99.90;;;22.85;55.92;101105.63;4976910;27;97651;-56
2023/06/22 08:49:43;;;;;;;3.23;2.33;;;23.00;99.90;;;22.93;55.64;101102.31;4992507;27;99587;-55
2023/06/22 08:52:08;;;;;;;3.17;2.33;;;23.00;99.90;;;22.95;55.61;101105.75;4987049;27;97382;-56
2023/06/22 08:54:34;;;;;;;2.67;1.97;;;23.00;99.90;;;22.97;55.66;101095.72;4987622;27;97417;-60
2023/06/22 08:57:02;;;;;;;2.55;1.75;;;23.00;99.90;;;22.92;55.83;101095.25;4989476;27;112190;-58
2023/06/22 08:59:28;;;;;;;2.28;2.03;;;23.00;99.90;;;22.88;55.75;101096.47;4996208;27;101994;-57
2023/06/22 09:01:53;;;;;;;6.65;3.17;;;23.00;99.90;;;22.91;55.60;101078.25;4977955;27;97435;-54
2023/06/22 09:04:21;;;;;;;2.97;2.13;;;23.00;99.90;;;22.74;55.99;101074.19;4994756;27;98637;-55
2023/06/22 09:06:49;;;;;;;3.57;2.30;;;22.90;99.90;;;22.79;56.12;101074.66;4993445;27;98822;-56
2023/06/22 09:09:16;;;;;;;4.53;2.75;;;22.90;99.90;;;22.79;56.27;101069.28;4983920;27;97428;-54
2023/06/22 09:11:42;;;;;;;4.80;2.28;;;22.90;99.90;;;22.79;55.97;101063.91;4984805;27;96952;-55
2023/06/22 09:14:09;;;;;;;4.68;2.60;;;22.90;99.90;;;22.95;56.40;101049.25;4985665;27;97236;-55
2023/06/22 09:16:35;;;;;;;4.38;2.63;;;23.00;99.90;;;22.90;56.57;101054.16;4977295;27;98789;-57
2023/06/22 09:19:01;;;;;;;5.80;3.58;;;23.00;99.90;;;22.68;56.48;101055.00;4996495;27;105372;-55
2023/06/22 09:21:26;;;;;;;8.18;3.30;;;22.90;99.90;;;22.77;56.62;101055.13;4991198;27;97459;-57
2023/06/22 09:23:52;;;;;;;4.00;2.63;;;22.90;99.90;;;22.81;56.26;101056.56;4996490;27;97176;-56
2023/06/22 09:26:19;;;;;;;7.30;2.95;;;22.90;99.90;;;22.75;55.91;101054.38;4998039;27;97610;-55
2023/06/22 09:28:45;;;;;;;4.65;2.92;;;22.90;99.90;;;22.73;57.03;101053.66;4995642;27;98394;-57
2023/06/22 09:31:11;;;;;;;4.15;2.63;;;22.80;99.90;;;22.78;56.54;101040.69;4989289;27;105426;-57
2023/06/22 09:33:38;;;;;;;5.47;2.60;;;22.90;99.90;;;22.76;56.30;101031.03;4995789;27;97675;-57
2023/06/22 09:36:07;;;;;;;7.80;3.13;;;22.90;99.90;;;22.91;56.78;101031.66;4991623;27;97971;-54
2023/06/22 09:38:38;;;;;;;3.63;2.40;;;23.00;99.90;;;22.83;56.31;101017.00;4998912;27;99765;-54
2023/06/22 09:41:04;;;;;;;9.93;3.67;;;23.00;99.90;;;22.76;56.68;101021.13;4984157;27;97501;-56
2023/06/22 09:43:35;;;;;;;5.00;2.88;;;22.90;99.90;;;22.82;56.81;101019.78;4998871;28;97479;-56
2023/06/22 09:46:02;;;;;;;4.13;2.90;;;22.90;99.90;;;22.68;56.72;101015.50;5002248;27;103258;-55
2023/06/22 09:48:30;;;;;;;6.27;3.10;;;22.80;99.90;;;22.55;59.01;101014.78;4989941;27;101856;-54
2023/06/22 09:50:56;;;;;;;5.25;3.50;;;22.70;99.90;;;22.70;57.08;101010.00;4964761;27;98248;-56
2023/06/22 09:53:21;;;;;;;4.23;2.87;;;22.80;99.90;;;22.74;56.87;101012.34;4976455;27;97151;-57
2023/06/22 09:55:47;;;;;;;3.70;2.63;;;22.80;99.90;;;22.82;56.56;101020.66;4991095;27;97097;-54
2023/06/22 09:58:13;;;;;;;3.83;2.60;;;22.90;99.90;;;22.94;58.53;101013.44;4975800;27;97230;-57
2023/06/22 10:00:41;;;;;;;6.00;2.87;;;23.00;99.90;;;22.81;56.54;101016.22;4983631;27;98703;-58
2023/06/22 10:03:07;;;;;;;3.83;2.77;;;23.00;99.90;;;22.80;56.13;101017.22;4979790;27;97180;-55
2023/06/22 10:05:33;;;;;;;4.40;2.55;;;22.90;99.90;;;22.95;56.19;101016.97;4993879;27;97606;-56
2023/06/22 10:07:59;;;;;;;4.83;2.57;;;23.00;99.90;;;22.85;56.00;101016.88;5000403;27;97538;-57
2023/06/22 10:10:25;;;;;;;4.60;2.97;;;23.00;99.90;;;22.85;56.33;101020.41;5002795;27;97133;-57
2023/06/22 10:13:07;;;;;;;4.60;2.78;;;23.00;99.90;;;22.98;56.66;101022.09;4991087;27;108399;-56
2023/06/22 10:15:32;;;;;;;5.55;3.78;;;23.00;99.90;;;22.94;56.41;101017.97;4985703;27;101034;-55